Time;durP1;ratioP1;P1;durP2;ratioP2;P2;SDS_P1;SDS_P2;PMS_P1;PMS_P2;Temp;Humidity;BMP_temperature;BMP_pressure;BME280_temperature;BME280_humidity;BME280_pressure;Samples;Min_cycle;Max_cycle;Signal;HPM_P1;HPM_P2
2022/10/31 00:02:22;;;;;;;13.10;6.83;;;13.40;92.40;;;;;;5008706;28;20284;-70
2022/10/31 00:04:48;;;;;;;13.63;7.47;;;13.40;92.50;;;;;;5012153;28;20620;-70
2022/10/31 00:07:13;;;;;;;15.33;7.73;;;13.30;92.90;;;;;;5012838;28;20673;-70
2022/10/31 00:09:39;;;;;;;16.67;7.40;;;13.30;93.10;;;;;;5012803;28;20216;-70
2022/10/31 00:12:05;;;;;;;15.03;6.43;;;13.30;93.10;;;;;;5019274;28;20213;-69
2022/10/31 00:14:30;;;;;;;15.67;7.60;;;13.30;93.10;;;;;;5022666;28;20179;-70
2022/10/31 00:16:56;;;;;;;10.43;6.53;;;13.30;93.10;;;;;;5024566;28;21006;-69
2022/10/31 00:19:21;;;;;;;8.93;5.77;;;13.30;93.00;;;;;;5020151;28;20188;-69
2022/10/31 00:21:47;;;;;;;12.40;7.10;;;13.30;93.00;;;;;;5024081;28;20189;-69
2022/10/31 00:24:12;;;;;;;14.97;6.17;;;13.20;93.10;;;;;;5016487;28;20209;-69
2022/10/31 00:26:38;;;;;;;13.90;5.83;;;13.20;93.20;;;;;;5019762;28;20267;-69
2022/10/31 00:29:04;;;;;;;15.73;6.43;;;13.10;93.30;;;;;;5016469;28;20185;-69
2022/10/31 00:31:29;;;;;;;16.70;6.87;;;13.20;93.20;;;;;;5014875;28;20338;-69
2022/10/31 00:33:56;;;;;;;16.10;7.70;;;13.20;93.10;;;;;;5003611;28;20210;-69
2022/10/31 00:36:22;;;;;;;14.10;7.20;;;13.10;93.10;;;;;;5009153;28;20523;-69
2022/10/31 00:38:48;;;;;;;18.73;7.00;;;13.10;93.30;;;;;;5005632;28;20452;-69
2022/10/31 00:41:15;;;;;;;13.00;5.97;;;13.10;93.40;;;;;;5007906;28;20193;-70
2022/10/31 00:43:42;;;;;;;19.83;6.53;;;13.10;93.40;;;;;;5005250;28;20237;-71
2022/10/31 00:46:07;;;;;;;17.07;7.57;;;13.00;93.40;;;;;;5006187;28;20475;-70
2022/10/31 00:48:33;;;;;;;15.87;7.10;;;13.00;93.60;;;;;;5010829;28;20421;-69
2022/10/31 00:50:59;;;;;;;12.90;5.70;;;13.10;93.60;;;;;;5020516;28;20181;-69
2022/10/31 00:53:24;;;;;;;14.17;6.33;;;13.10;93.60;;;;;;5017469;28;20205;-70
2022/10/31 00:55:50;;;;;;;14.80;7.50;;;13.10;93.40;;;;;;5013547;28;20990;-69
2022/10/31 00:58:16;;;;;;;9.63;6.10;;;13.10;93.30;;;;;;5011383;28;20194;-69
2022/10/31 01:00:42;;;;;;;15.43;7.30;;;13.10;93.50;;;;;;5011809;28;20429;-69
2022/10/31 01:03:07;;;;;;;12.80;6.40;;;13.00;93.60;;;;;;5008627;28;20217;-70
2022/10/31 01:05:33;;;;;;;15.73;6.23;;;12.90;93.90;;;;;;5011858;28;20240;-69
2022/10/31 01:07:59;;;;;;;15.17;6.70;;;13.00;94.10;;;;;;5011349;28;20182;-70
2022/10/31 01:10:24;;;;;;;15.63;6.60;;;13.00;93.90;;;;;;5009527;28;20721;-70
2022/10/31 01:12:50;;;;;;;11.33;7.63;;;13.00;93.90;;;;;;5005875;28;20206;-69
2022/10/31 01:15:21;;;;;;;12.17;6.40;;;13.00;93.80;;;;;;5009003;28;20273;-70
2022/10/31 01:17:48;;;;;;;13.97;5.83;;;13.00;93.90;;;;;;5009279;28;20193;-70
2022/10/31 01:20:15;;;;;;;10.40;5.87;;;13.00;93.80;;;;;;5008360;28;20428;-69
2022/10/31 01:22:41;;;;;;;10.43;5.73;;;13.00;93.50;;;;;;5004880;28;20477;-70
2022/10/31 01:25:08;;;;;;;11.57;5.43;;;13.00;93.50;;;;;;5007400;28;20465;-71
2022/10/31 01:27:34;;;;;;;10.07;6.13;;;13.00;93.60;;;;;;5005624;28;20186;-71
2022/10/31 01:29:59;;;;;;;11.80;6.00;;;13.10;93.50;;;;;;5011761;28;20486;-70
2022/10/31 01:32:28;;;;;;;8.90;5.60;;;13.10;93.10;;;;;;5004912;28;20465;-69
2022/10/31 01:34:54;;;;;;;11.63;6.13;;;13.00;93.20;;;;;;5004641;28;20263;-70
2022/10/31 01:37:19;;;;;;;12.10;6.10;;;13.00;93.30;;;;;;5010492;28;20421;-69
2022/10/31 01:39:45;;;;;;;11.43;6.23;;;12.90;93.40;;;;;;5011003;28;20285;-69
2022/10/31 01:42:19;;;;;;;12.33;6.50;;;13.00;93.50;;;;;;5006137;28;20221;-69
2022/10/31 01:44:52;;;;;;;10.37;5.70;;;12.90;93.60;;;;;;5009520;28;20193;-69
2022/10/31 01:47:21;;;;;;;11.47;6.40;;;12.90;93.60;;;;;;5006525;28;20777;-69
2022/10/31 01:49:51;;;;;;;12.07;6.63;;;12.90;93.90;;;;;;5010304;28;20424;-70
2022/10/31 01:52:24;;;;;;;10.00;5.80;;;12.80;94.10;;;;;;5006413;28;20504;-69
2022/10/31 01:55:15;;;;;;;14.53;6.93;;;12.80;94.30;;;;;;5006833;28;20532;-69
2022/10/31 01:57:46;;;;;;;11.30;5.60;;;12.80;94.30;;;;;;5009022;28;20436;-70
2022/10/31 02:00:13;;;;;;;12.83;5.87;;;12.80;94.40;;;;;;5010906;28;20528;-70
2022/10/31 02:02:38;;;;;;;12.20;5.80;;;12.80;94.40;;;;;;5007479;28;20500;-70
2022/10/31 02:05:08;;;;;;;11.47;6.03;;;12.90;94.40;;;;;;5010816;28;20511;-70
2022/10/31 02:08:06;;;;;;;11.40;6.07;;;12.90;94.30;;;;;;5010079;28;20324;-68
2022/10/31 02:10:33;;;;;;;10.23;5.70;;;12.90;94.30;;;;;;5005915;28;20425;-70
2022/10/31 02:13:01;;;;;;;12.70;6.10;;;12.80;94.40;;;;;;5008198;28;20456;-68
2022/10/31 02:15:29;;;;;;;12.50;6.90;;;12.80;94.20;;;;;;5010788;28;20435;-70
2022/10/31 02:17:55;;;;;;;11.37;6.37;;;12.80;94.10;;;;;;5007757;28;20967;-70
2022/10/31 02:20:27;;;;;;;8.03;5.43;;;12.80;94.20;;;;;;5005123;28;20528;-70
2022/10/31 02:23:06;;;;;;;9.80;6.03;;;12.80;94.10;;;;;;4999922;28;20209;-70
2022/10/31 02:26:09;;;;;;;12.30;6.33;;;12.80;94.00;;;;;;5005613;28;20539;-71
2022/10/31 02:28:46;;;;;;;11.30;5.70;;;12.80;93.90;;;;;;5012076;28;20413;-71
2022/10/31 02:31:16;;;;;;;13.77;5.73;;;12.80;93.90;;;;;;5012321;28;20417;-71
2022/10/31 02:33:49;;;;;;;9.03;5.20;;;12.70;94.00;;;;;;5011747;28;20973;-70
2022/10/31 02:36:29;;;;;;;13.80;5.37;;;12.80;93.80;;;;;;5012808;28;20520;-71
2022/10/31 02:39:18;;;;;;;10.13;5.57;;;12.80;93.70;;;;;;5010336;28;20429;-70
2022/10/31 02:41:47;;;;;;;13.20;6.47;;;12.70;93.60;;;;;;5010696;28;20459;-70
2022/10/31 02:44:48;;;;;;;13.70;5.90;;;12.70;93.60;;;;;;5008036;28;20432;-70
2022/10/31 02:47:16;;;;;;;9.50;5.10;;;12.70;93.70;;;;;;5010418;28;20535;-71
2022/10/31 02:50:00;;;;;;;12.80;7.03;;;12.70;93.60;;;;;;5008431;28;20428;-71
2022/10/31 02:52:27;;;;;;;16.30;5.97;;;12.70;93.60;;;;;;5005745;28;20450;-70
2022/10/31 02:54:53;;;;;;;11.40;5.30;;;12.60;93.50;;;;;;5010853;28;20467;-70
2022/10/31 02:57:34;;;;;;;11.17;5.90;;;12.70;93.60;;;;;;5013593;28;20931;-70
2022/10/31 03:00:08;;;;;;;18.67;7.23;;;12.70;93.70;;;;;;5010519;28;20596;-69
2022/10/31 03:02:51;;;;;;;10.53;6.17;;;12.60;93.90;;;;;;5004510;28;20488;-68
2022/10/31 03:05:53;;;;;;;14.20;6.90;;;12.50;94.20;;;;;;5006567;28;20468;-70
2022/10/31 03:08:30;;;;;;;12.93;6.30;;;12.60;94.20;;;;;;5005683;28;20411;-71
2022/10/31 03:10:59;;;;;;;9.93;4.83;;;12.60;94.20;;;;;;5006921;28;20486;-69
2022/10/31 03:13:49;;;;;;;10.90;6.27;;;12.60;93.40;;;;;;5005557;28;20461;-69
2022/10/31 03:16:26;;;;;;;11.50;6.03;;;12.60;92.80;;;;;;5005182;28;20856;-68
2022/10/31 03:19:02;;;;;;;16.23;5.80;;;12.50;92.90;;;;;;5002535;28;20427;-68
2022/10/31 03:21:35;;;;;;;8.77;5.53;;;12.50;93.30;;;;;;5009937;28;20451;-69
2022/10/31 03:24:01;;;;;;;11.33;5.43;;;12.50;93.50;;;;;;5013377;28;20452;-69
2022/10/31 03:26:28;;;;;;;11.17;6.20;;;12.40;93.70;;;;;;5024597;28;21064;-69
2022/10/31 03:28:56;;;;;;;10.23;6.27;;;12.30;93.90;;;;;;5022982;28;20854;-69
2022/10/31 03:31:29;;;;;;;10.60;6.00;;;12.30;94.10;;;;;;5022405;28;20470;-69
2022/10/31 03:33:57;;;;;;;12.00;6.33;;;12.30;94.20;;;;;;5006507;28;20464;-69
2022/10/31 03:36:24;;;;;;;11.47;6.77;;;12.30;94.10;;;;;;5012824;28;20432;-69
2022/10/31 03:38:51;;;;;;;11.30;5.80;;;12.30;94.00;;;;;;5009941;28;20433;-68
2022/10/31 03:41:23;;;;;;;10.90;5.80;;;12.40;93.90;;;;;;5013433;28;20520;-70
2022/10/31 03:44:15;;;;;;;10.70;6.60;;;12.40;93.60;;;;;;5006879;28;20500;-69
2022/10/31 03:46:42;;;;;;;13.10;6.37;;;12.30;93.60;;;;;;5012416;28;20582;-70
2022/10/31 03:49:09;;;;;;;8.27;5.60;;;12.30;93.70;;;;;;5011356;28;20879;-69
2022/10/31 03:52:01;;;;;;;11.47;6.20;;;12.30;93.80;;;;;;5013090;28;20946;-70
2022/10/31 03:54:45;;;;;;;11.13;6.10;;;12.40;93.70;;;;;;5003611;28;20425;-69
2022/10/31 03:57:26;;;;;;;13.03;5.17;;;12.40;93.50;;;;;;5005546;28;20459;-70
2022/10/31 04:00:00;;;;;;;11.70;5.23;;;12.30;93.10;;;;;;5014792;28;20432;-69
2022/10/31 04:02:30;;;;;;;11.93;5.73;;;12.30;92.90;;;;;;5012250;28;20464;-69
2022/10/31 04:04:57;;;;;;;10.90;5.27;;;12.20;92.80;;;;;;5007103;28;20423;-69
2022/10/31 04:07:28;;;;;;;9.93;5.50;;;12.10;93.00;;;;;;5003096;28;20436;-69
2022/10/31 04:09:55;;;;;;;13.33;6.40;;;12.10;93.30;;;;;;5005645;28;20419;-71
2022/10/31 04:12:23;;;;;;;12.77;6.70;;;12.10;93.60;;;;;;5001270;28;20599;-70
2022/10/31 04:14:52;;;;;;;8.97;5.43;;;12.10;93.60;;;;;;5004771;28;20847;-70
2022/10/31 04:17:20;;;;;;;12.50;5.40;;;12.20;93.80;;;;;;4997839;28;20433;-69
2022/10/31 04:19:45;;;;;;;20.13;5.60;;;12.10;93.80;;;;;;5012159;28;20507;-70
2022/10/31 04:22:11;;;;;;;14.10;6.57;;;12.20;94.00;;;;;;5010410;28;20695;-70
2022/10/31 04:24:39;;;;;;;8.57;5.40;;;12.10;94.00;;;;;;5013042;28;20185;-72
2022/10/31 04:27:04;;;;;;;13.10;6.30;;;12.10;94.10;;;;;;5012928;28;20210;-69
2022/10/31 04:29:30;;;;;;;13.70;6.00;;;12.00;94.10;;;;;;5011597;28;20420;-69
2022/10/31 04:31:55;;;;;;;16.70;6.47;;;12.10;94.30;;;;;;5009844;28;20947;-70
2022/10/31 04:34:21;;;;;;;11.53;6.20;;;12.10;94.40;;;;;;5004352;28;20235;-70
2022/10/31 04:36:47;;;;;;;12.83;6.07;;;12.10;94.30;;;;;;5011773;28;20272;-69
2022/10/31 04:39:12;;;;;;;12.40;6.47;;;12.00;94.30;;;;;;5012162;28;20212;-70
2022/10/31 04:41:38;;;;;;;11.77;5.97;;;12.10;94.40;;;;;;5010904;28;20186;-70
2022/10/31 04:44:03;;;;;;;13.47;6.10;;;12.10;94.40;;;;;;5006360;28;20289;-69
2022/10/31 04:46:29;;;;;;;10.57;5.53;;;12.00;94.30;;;;;;5007898;28;20585;-69
2022/10/31 04:48:55;;;;;;;12.37;5.93;;;12.10;94.30;;;;;;5012115;28;20617;-70
2022/10/31 04:51:20;;;;;;;10.17;5.77;;;12.10;94.00;;;;;;5012314;28;20508;-69
2022/10/31 04:53:46;;;;;;;17.67;6.00;;;12.10;93.80;;;;;;5009972;28;20201;-69
2022/10/31 04:56:11;;;;;;;11.63;6.07;;;12.10;93.60;;;;;;5013140;28;20201;-68
2022/10/31 04:58:37;;;;;;;15.50;6.73;;;12.10;93.80;;;;;;5013193;28;20285;-70
2022/10/31 05:01:03;;;;;;;8.53;5.20;;;12.10;93.80;;;;;;5010804;28;20217;-70
2022/10/31 05:03:28;;;;;;;17.93;6.07;;;12.00;94.00;;;;;;5013724;28;20210;-69
2022/10/31 05:05:54;;;;;;;10.60;5.67;;;12.00;94.10;;;;;;5018808;28;20964;-69
2022/10/31 05:08:19;;;;;;;12.50;5.70;;;11.90;94.20;;;;;;5018615;28;20233;-68
2022/10/31 05:10:45;;;;;;;11.23;5.67;;;11.90;94.40;;;;;;5019882;28;20188;-69
2022/10/31 05:13:10;;;;;;;10.20;5.70;;;11.90;94.30;;;;;;5013829;28;20259;-69
2022/10/31 05:15:36;;;;;;;11.30;5.90;;;11.90;94.40;;;;;;5017487;28;20621;-70
2022/10/31 05:18:02;;;;;;;10.63;5.90;;;11.90;94.50;;;;;;5017131;28;20188;-69
2022/10/31 05:20:29;;;;;;;12.30;6.23;;;11.90;94.30;;;;;;5027329;28;20197;-70
2022/10/31 05:22:56;;;;;;;11.20;5.60;;;11.80;93.90;;;;;;5023223;28;20204;-69
2022/10/31 05:25:25;;;;;;;12.43;6.20;;;11.80;93.80;;;;;;5028569;28;20460;-70
2022/10/31 05:27:52;;;;;;;8.07;5.83;;;11.70;93.90;;;;;;5023595;28;20432;-70
2022/10/31 05:30:20;;;;;;;11.27;5.50;;;11.70;94.10;;;;;;5015900;28;20428;-68
2022/10/31 05:32:48;;;;;;;10.90;6.37;;;11.60;94.30;;;;;;5012952;28;20461;-70
2022/10/31 05:35:19;;;;;;;15.70;5.40;;;11.60;94.70;;;;;;5016520;28;20436;-68
2022/10/31 05:37:45;;;;;;;14.20;6.50;;;11.50;95.00;;;;;;5011659;28;20483;-68
2022/10/31 05:40:12;;;;;;;18.03;7.03;;;11.60;95.30;;;;;;5011871;28;20432;-69
2022/10/31 05:42:42;;;;;;;12.27;5.63;;;11.60;95.40;;;;;;5011143;28;20484;-69
2022/10/31 05:45:09;;;;;;;12.10;6.73;;;11.50;95.40;;;;;;5011057;28;20434;-70
2022/10/31 05:47:35;;;;;;;14.80;6.87;;;11.60;95.60;;;;;;5016120;28;20475;-70
2022/10/31 05:50:01;;;;;;;11.67;6.50;;;11.60;95.60;;;;;;5016282;28;20446;-70
2022/10/31 05:52:26;;;;;;;13.43;6.47;;;11.60;95.70;;;;;;5014652;28;20651;-70
2022/10/31 05:54:52;;;;;;;10.13;5.80;;;11.70;95.70;;;;;;5014820;28;20182;-70
2022/10/31 05:57:17;;;;;;;14.70;6.20;;;11.60;95.50;;;;;;5013325;28;20215;-70
2022/10/31 05:59:43;;;;;;;14.13;6.70;;;11.60;95.30;;;;;;5014253;28;20576;-70
2022/10/31 06:02:09;;;;;;;12.10;6.43;;;11.60;95.10;;;;;;5014635;28;20353;-70
2022/10/31 06:04:34;;;;;;;14.03;6.80;;;11.50;95.20;;;;;;5016305;28;20198;-70
2022/10/31 06:07:00;;;;;;;12.80;6.60;;;11.50;95.30;;;;;;5014139;28;20209;-69
2022/10/31 06:09:25;;;;;;;11.07;6.60;;;11.50;95.30;;;;;;5015340;28;20182;-70
2022/10/31 06:11:51;;;;;;;11.13;6.70;;;11.50;95.20;;;;;;5016416;28;20216;-71
2022/10/31 06:14:16;;;;;;;10.67;5.80;;;11.50;95.20;;;;;;5014677;28;20550;-70
2022/10/31 06:16:42;;;;;;;11.10;5.57;;;11.50;95.30;;;;;;5016619;28;20201;-69
2022/10/31 06:19:07;;;;;;;13.17;6.40;;;11.50;95.20;;;;;;5010266;28;20195;-71
2022/10/31 06:21:33;;;;;;;12.00;6.20;;;11.50;95.20;;;;;;5017103;28;20332;-71
2022/10/31 06:23:59;;;;;;;13.47;6.73;;;11.60;95.20;;;;;;5006996;28;20206;-71
2022/10/31 06:26:24;;;;;;;13.57;7.30;;;11.60;95.30;;;;;;5011825;28;20684;-71
2022/10/31 06:28:50;;;;;;;11.70;6.80;;;11.60;95.20;;;;;;5009135;28;20650;-70
2022/10/31 06:31:15;;;;;;;11.10;6.43;;;11.50;95.20;;;;;;5010120;28;20174;-70
2022/10/31 06:33:42;;;;;;;13.97;6.13;;;11.50;95.40;;;;;;5002132;28;20229;-71
2022/10/31 06:36:08;;;;;;;9.73;5.43;;;11.70;95.40;;;;;;5007462;28;20190;-71
2022/10/31 06:38:34;;;;;;;12.27;5.90;;;11.70;94.90;;;;;;5003684;28;20420;-71
2022/10/31 06:41:04;;;;;;;14.13;6.30;;;11.70;94.50;;;;;;5009874;28;20512;-71
2022/10/31 06:43:30;;;;;;;15.37;7.50;;;11.70;94.30;;;;;;5006004;28;20770;-73
2022/10/31 06:45:56;;;;;;;9.80;6.40;;;11.70;94.20;;;;;;5011275;28;20484;-70
2022/10/31 06:48:21;;;;;;;12.70;6.50;;;11.60;94.30;;;;;;5011379;28;20911;-70
2022/10/31 06:50:47;;;;;;;15.50;6.23;;;11.70;94.60;;;;;;5011075;28;20178;-71
2022/10/31 06:53:14;;;;;;;14.00;5.83;;;11.70;94.40;;;;;;5006307;28;20271;-71
2022/10/31 06:55:40;;;;;;;15.90;7.30;;;11.70;94.40;;;;;;5005596;28;20186;-71
2022/10/31 06:58:06;;;;;;;12.50;6.70;;;11.70;94.30;;;;;;5014262;28;20456;-72
2022/10/31 07:00:31;;;;;;;14.70;6.73;;;11.70;94.40;;;;;;5010521;28;20433;-71
2022/10/31 07:02:59;;;;;;;13.20;6.70;;;11.70;94.40;;;;;;5007592;28;20210;-71
2022/10/31 07:05:25;;;;;;;11.90;7.17;;;11.80;94.40;;;;;;5006900;28;20286;-70
2022/10/31 07:07:56;;;;;;;12.17;7.03;;;11.70;94.40;;;;;;5009242;28;20478;-72
2022/10/31 07:10:23;;;;;;;13.10;6.10;;;11.80;94.60;;;;;;5007066;28;20454;-72
2022/10/31 07:12:48;;;;;;;16.73;6.70;;;11.80;94.70;;;;;;5009065;28;20506;-71
2022/10/31 07:15:14;;;;;;;10.77;6.50;;;11.80;94.80;;;;;;5012629;28;20424;-72
2022/10/31 07:17:39;;;;;;;14.27;6.87;;;11.90;94.90;;;;;;5010006;28;20209;-71
2022/10/31 07:20:05;;;;;;;14.67;6.80;;;11.90;95.10;;;;;;5013054;28;20193;-70
2022/10/31 07:22:35;;;;;;;15.30;8.13;;;12.00;95.10;;;;;;5013762;28;20224;-70
2022/10/31 07:25:01;;;;;;;12.47;7.57;;;12.00;95.10;;;;;;5008404;28;20456;-70
2022/10/31 07:27:26;;;;;;;12.70;7.87;;;12.10;95.10;;;;;;5008294;28;20454;-69
2022/10/31 07:29:52;;;;;;;17.40;7.20;;;12.20;95.10;;;;;;5006367;28;20205;-70
2022/10/31 07:32:17;;;;;;;13.00;7.33;;;12.20;94.40;;;;;;5010149;28;20261;-71
2022/10/31 07:34:43;;;;;;;13.40;7.50;;;12.20;94.20;;;;;;5007249;28;20193;-71
2022/10/31 07:37:09;;;;;;;14.90;8.07;;;12.30;94.00;;;;;;5012622;28;20240;-70
2022/10/31 07:39:34;;;;;;;15.90;8.40;;;12.20;93.80;;;;;;5014392;28;20193;-70
2022/10/31 07:42:00;;;;;;;18.87;7.57;;;12.30;93.60;;;;;;5014078;28;20228;-71
2022/10/31 07:44:25;;;;;;;11.80;7.40;;;12.30;93.30;;;;;;5008665;28;20247;-71
2022/10/31 07:46:51;;;;;;;13.37;7.30;;;12.30;93.00;;;;;;5010929;28;20237;-70
2022/10/31 07:49:16;;;;;;;16.93;7.50;;;12.40;92.90;;;;;;5006673;28;20201;-71
2022/10/31 07:51:42;;;;;;;13.23;6.73;;;12.50;92.60;;;;;;5010226;28;20277;-70
2022/10/31 07:54:07;;;;;;;14.43;7.53;;;12.60;92.30;;;;;;5003043;28;20188;-72
2022/10/31 07:56:33;;;;;;;11.73;5.70;;;12.60;92.00;;;;;;5006391;28;20285;-72
2022/10/31 07:58:58;;;;;;;9.87;6.23;;;12.60;92.00;;;;;;5009024;28;20201;-70
2022/10/31 08:01:24;;;;;;;11.00;6.53;;;12.60;91.90;;;;;;5007410;28;20197;-73
2022/10/31 08:03:49;;;;;;;13.80;7.10;;;12.60;91.90;;;;;;5006345;28;20205;-71
2022/10/31 08:06:15;;;;;;;18.10;7.83;;;12.60;91.90;;;;;;5007120;28;20210;-70
2022/10/31 08:08:40;;;;;;;12.97;6.90;;;12.70;91.90;;;;;;5003244;28;20264;-69
2022/10/31 08:11:06;;;;;;;15.43;6.90;;;12.70;91.80;;;;;;5007962;28;20670;-71
2022/10/31 08:13:32;;;;;;;12.37;7.17;;;12.70;92.00;;;;;;5005671;28;20850;-69
2022/10/31 08:16:03;;;;;;;11.23;7.20;;;12.80;92.10;;;;;;5007605;28;20215;-69
2022/10/31 08:18:29;;;;;;;12.37;7.47;;;12.90;92.20;;;;;;5007100;28;20193;-70
2022/10/31 08:20:54;;;;;;;13.33;6.70;;;13.10;92.20;;;;;;5007338;28;20428;-69
2022/10/31 08:23:20;;;;;;;16.67;9.70;;;13.20;92.00;;;;;;5008740;28;20998;-70
2022/10/31 08:25:47;;;;;;;19.00;10.17;;;13.10;91.30;;;;;;5012863;28;20297;-70
2022/10/31 08:28:13;;;;;;;17.77;10.27;;;12.90;91.60;;;;;;5015423;28;20197;-70
2022/10/31 08:30:40;;;;;;;23.03;10.03;;;12.90;92.20;;;;;;5015556;28;20432;-69
2022/10/31 08:33:10;;;;;;;16.17;9.17;;;12.80;92.40;;;;;;5011000;28;20515;-70
2022/10/31 08:35:35;;;;;;;24.97;10.07;;;12.80;92.70;;;;;;5012519;28;20500;-69
2022/10/31 08:38:01;;;;;;;18.40;9.90;;;12.80;92.70;;;;;;5011795;28;20421;-69
2022/10/31 08:40:30;;;;;;;15.53;9.53;;;12.90;92.70;;;;;;5009738;28;20558;-69
2022/10/31 08:43:00;;;;;;;20.77;10.20;;;12.90;92.70;;;;;;5005967;28;20480;-69
2022/10/31 08:45:26;;;;;;;15.50;10.23;;;12.90;92.80;;;;;;5010037;28;20467;-69
2022/10/31 08:47:56;;;;;;;23.70;10.70;;;12.80;92.90;;;;;;5011849;28;20475;-70
2022/10/31 08:50:21;;;;;;;16.13;9.73;;;12.80;93.10;;;;;;5009567;28;20421;-69
2022/10/31 08:52:47;;;;;;;22.10;11.33;;;12.90;93.10;;;;;;5006552;28;20460;-69
2022/10/31 08:55:12;;;;;;;18.37;10.87;;;12.90;93.00;;;;;;5011575;28;20209;-69
2022/10/31 08:57:38;;;;;;;13.47;10.13;;;13.00;92.90;;;;;;5011482;28;20208;-70
2022/10/31 09:00:05;;;;;;;16.60;10.27;;;13.10;92.80;;;;;;5008874;28;20237;-70
2022/10/31 09:02:30;;;;;;;21.90;10.43;;;13.20;92.40;;;;;;5005236;28;20289;-70
2022/10/31 09:04:56;;;;;;;21.23;10.57;;;13.30;92.40;;;;;;5012198;28;20505;-71
2022/10/31 09:07:21;;;;;;;18.07;10.53;;;13.30;92.10;;;;;;5015794;28;20190;-71
2022/10/31 09:09:47;;;;;;;20.17;10.00;;;13.40;91.90;;;;;;5014534;28;20186;-71
2022/10/31 09:12:13;;;;;;;16.10;9.80;;;13.50;91.80;;;;;;5008450;28;20217;-71
2022/10/31 09:14:38;;;;;;;21.50;10.33;;;13.60;91.70;;;;;;5005871;28;20649;-71
2022/10/31 09:17:04;;;;;;;18.63;10.30;;;13.90;91.20;;;;;;5006442;28;20182;-70
2022/10/31 09:19:30;;;;;;;24.60;11.17;;;14.00;90.80;;;;;;5008714;28;20225;-71
2022/10/31 09:21:55;;;;;;;17.90;9.60;;;14.00;90.40;;;;;;5009867;28;20190;-71
2022/10/31 09:24:21;;;;;;;18.20;10.03;;;14.20;90.50;;;;;;5008245;28;20424;-71
2022/10/31 09:26:46;;;;;;;21.10;11.10;;;14.40;90.10;;;;;;5010628;28;20219;-72
2022/10/31 09:29:12;;;;;;;22.73;10.77;;;14.40;88.70;;;;;;5010559;28;20210;-70
2022/10/31 09:31:37;;;;;;;16.40;10.10;;;14.50;88.70;;;;;;5010675;28;20190;-71
2022/10/31 09:34:03;;;;;;;18.43;11.27;;;14.60;88.30;;;;;;5008865;28;20254;-71
2022/10/31 09:36:29;;;;;;;16.23;9.40;;;14.60;88.30;;;;;;5011003;28;20186;-71
2022/10/31 09:38:55;;;;;;;16.90;9.60;;;14.60;88.00;;;;;;5009579;28;20445;-71
2022/10/31 09:41:42;;;;;;;15.93;8.77;;;14.60;87.80;;;;;;5008478;28;20946;-71
2022/10/31 09:44:19;;;;;;;20.03;11.27;;;14.60;88.40;;;;;;5006772;28;20293;-69
2022/10/31 09:46:48;;;;;;;25.13;11.30;;;14.80;88.10;;;;;;5006456;28;20472;-69
2022/10/31 09:49:49;;;;;;;25.60;10.50;;;14.60;87.70;;;;;;5010254;28;20414;-69
2022/10/31 09:52:28;;;;;;;18.03;9.63;;;14.40;88.10;;;;;;5003952;28;20515;-70
2022/10/31 09:54:59;;;;;;;27.33;11.30;;;14.20;88.70;;;;;;5008727;28;20976;-69
2022/10/31 09:57:29;;;;;;;17.83;10.50;;;14.20;88.90;;;;;;5010470;28;20511;-70
2022/10/31 09:59:56;;;;;;;24.97;11.27;;;14.20;89.00;;;;;;5011029;28;20409;-70
2022/10/31 10:02:39;;;;;;;21.43;10.43;;;14.20;88.70;;;;;;5004709;28;20888;-69
2022/10/31 10:05:23;;;;;;;24.80;11.17;;;14.20;89.00;;;;;;5001291;28;20972;-70
2022/10/31 10:08:13;;;;;;;21.80;10.50;;;14.40;89.00;;;;;;5002840;28;20447;-69
2022/10/31 10:10:50;;;;;;;20.67;10.40;;;14.50;88.30;;;;;;5008122;28;20417;-70
2022/10/31 10:13:27;;;;;;;17.50;9.70;;;14.70;88.00;;;;;;5004975;28;20992;-69
2022/10/31 10:16:21;;;;;;;18.00;9.67;;;14.80;87.60;;;;;;5008583;28;20422;-70
2022/10/31 10:19:17;;;;;;;17.80;9.97;;;14.90;87.00;;;;;;5010315;28;20524;-69
2022/10/31 10:22:16;;;;;;;15.50;9.87;;;15.00;86.60;;;;;;5010244;28;20418;-69
2022/10/31 10:25:09;;;;;;;23.30;9.67;;;15.10;86.00;;;;;;5005830;28;20518;-69
2022/10/31 10:27:46;;;;;;;15.87;9.30;;;15.20;86.20;;;;;;5003628;28;20433;-70
2022/10/31 10:30:27;;;;;;;19.83;10.40;;;15.40;85.50;;;;;;4997911;28;20515;-70
2022/10/31 10:33:22;;;;;;;22.33;10.50;;;15.40;84.70;;;;;;5006389;28;20473;-68
2022/10/31 10:35:53;;;;;;;18.67;9.70;;;15.40;85.00;;;;;;4985709;28;20914;-70
2022/10/31 10:38:35;;;;;;;23.10;10.53;;;15.50;85.00;;;;;;4989512;28;20830;-69
2022/10/31 10:41:04;;;;;;;19.33;9.63;;;15.60;84.30;;;;;;5006958;28;20432;-70
2022/10/31 10:43:34;;;;;;;13.20;8.70;;;15.60;84.40;;;;;;5007277;28;20510;-69
2022/10/31 10:49:01;;;;;;;19.53;9.77;;;15.90;83.10;;;;;;5003865;28;20432;-69
2022/10/31 10:51:42;;;;;;;22.10;9.77;;;15.80;83.30;;;;;;5007501;28;20420;-69
2022/10/31 10:54:17;;;;;;;20.73;9.73;;;15.80;83.40;;;;;;5008379;28;20460;-69
2022/10/31 10:57:00;;;;;;;15.97;9.60;;;15.80;83.80;;;;;;5006913;28;20527;-70
2022/10/31 10:59:26;;;;;;;18.33;8.93;;;15.90;83.40;;;;;;5007140;28;20526;-69
2022/10/31 11:01:52;;;;;;;18.27;9.63;;;15.90;83.40;;;;;;5007049;28;20550;-70
2022/10/31 11:04:29;;;;;;;16.20;9.30;;;15.80;84.10;;;;;;5008594;28;20532;-70
2022/10/31 11:06:59;;;;;;;21.63;9.63;;;15.80;84.10;;;;;;5009737;28;20478;-69
2022/10/31 11:09:25;;;;;;;16.10;10.03;;;15.70;84.10;;;;;;5006866;28;20909;-70
2022/10/31 11:11:51;;;;;;;27.50;10.37;;;15.80;84.40;;;;;;5020801;28;20423;-71
2022/10/31 11:14:18;;;;;;;20.03;9.63;;;15.80;84.40;;;;;;5020079;28;20194;-69
2022/10/31 11:16:47;;;;;;;20.20;9.67;;;15.70;84.40;;;;;;5022139;28;20567;-70
2022/10/31 11:19:21;;;;;;;22.47;10.53;;;15.90;84.40;;;;;;5016389;28;20440;-69
2022/10/31 11:21:47;;;;;;;16.67;10.40;;;16.10;84.10;;;;;;5015251;28;20424;-68
2022/10/31 11:24:18;;;;;;;25.20;10.30;;;16.50;83.40;;;;;;5013989;28;20441;-69
2022/10/31 11:26:47;;;;;;;22.90;9.70;;;16.80;81.50;;;;;;5017098;28;20464;-68
2022/10/31 11:29:24;;;;;;;16.60;8.53;;;16.90;80.90;;;;;;5008241;28;20425;-70
2022/10/31 11:31:53;;;;;;;19.83;10.43;;;17.00;80.80;;;;;;5008602;28;20425;-69
2022/10/31 11:34:30;;;;;;;15.33;9.50;;;17.10;80.30;;;;;;5008338;28;20433;-70
2022/10/31 11:37:08;;;;;;;23.07;10.37;;;17.10;80.20;;;;;;5004860;28;20428;-69
2022/10/31 11:39:42;;;;;;;15.23;9.77;;;16.90;80.80;;;;;;5002517;28;20432;-70
2022/10/31 11:42:08;;;;;;;18.50;10.10;;;16.80;81.40;;;;;;5001146;28;20547;-70
2022/10/31 11:44:33;;;;;;;19.93;10.83;;;16.70;82.10;;;;;;5007106;28;20501;-70
2022/10/31 11:47:02;;;;;;;15.73;9.30;;;16.80;82.10;;;;;;5008928;28;20259;-70
2022/10/31 11:49:35;;;;;;;21.30;11.57;;;17.10;81.70;;;;;;5007621;28;20537;-70
2022/10/31 11:52:06;;;;;;;21.00;9.87;;;17.00;81.10;;;;;;5007303;28;20446;-69
2022/10/31 11:54:44;;;;;;;14.50;9.20;;;17.50;80.90;;;;;;5007948;28;20792;-70
2022/10/31 11:57:41;;;;;;;16.50;9.60;;;17.90;79.20;;;;;;5012271;28;20442;-69
2022/10/31 12:00:30;;;;;;;21.20;9.90;;;18.20;78.00;;;;;;5010271;28;20509;-70
2022/10/31 12:03:17;;;;;;;14.87;8.97;;;18.30;76.40;;;;;;5009592;28;20462;-69
2022/10/31 12:05:45;;;;;;;17.27;10.30;;;18.60;76.10;;;;;;5010618;28;20550;-70
2022/10/31 12:08:12;;;;;;;17.97;9.57;;;18.90;75.10;;;;;;5011434;28;20439;-70
2022/10/31 12:11:18;;;;;;;18.63;10.73;;;18.70;74.80;;;;;;5012666;28;20461;-69
2022/10/31 12:13:46;;;;;;;21.63;9.83;;;18.80;74.90;;;;;;5009276;28;20882;-69
2022/10/31 12:16:25;;;;;;;17.43;10.60;;;19.00;74.90;;;;;;5003390;28;20433;-69
2022/10/31 12:18:54;;;;;;;16.93;10.03;;;18.80;74.60;;;;;;5007176;28;20425;-69
2022/10/31 12:21:37;;;;;;;15.63;9.83;;;19.10;74.50;;;;;;5003943;28;20422;-69
2022/10/31 12:24:30;;;;;;;18.70;10.63;;;19.10;73.20;;;;;;5005427;28;20460;-70
2022/10/31 12:27:14;;;;;;;17.67;9.57;;;18.70;75.10;;;;;;4999715;28;20965;-69
2022/10/31 12:29:57;;;;;;;16.90;10.57;;;18.70;75.40;;;;;;5005384;28;20427;-69
2022/10/31 12:32:42;;;;;;;12.63;9.10;;;18.70;75.20;;;;;;5006230;28;20456;-70
2022/10/31 12:35:17;;;;;;;21.67;11.27;;;18.50;75.70;;;;;;5011719;28;20417;-69
2022/10/31 12:38:07;;;;;;;21.80;10.40;;;18.60;75.80;;;;;;5011335;28;20423;-70
2022/10/31 12:41:04;;;;;;;22.17;9.97;;;18.70;75.50;;;;;;5012001;28;20475;-70
2022/10/31 12:43:45;;;;;;;21.20;10.13;;;18.60;75.80;;;;;;5005198;28;20489;-70
2022/10/31 12:46:27;;;;;;;25.00;11.67;;;18.70;75.80;;;;;;5011471;28;20473;-70
2022/10/31 12:49:08;;;;;;;22.27;10.60;;;18.50;76.40;;;;;;5009982;28;20419;-70
2022/10/31 12:51:48;;;;;;;17.83;10.90;;;18.20;77.30;;;;;;5011494;28;20429;-69
2022/10/31 12:54:19;;;;;;;23.40;11.10;;;18.00;78.00;;;;;;5005491;28;20520;-69
2022/10/31 12:56:57;;;;;;;35.57;11.20;;;18.00;78.40;;;;;;5014941;28;20458;-72